LDZALDDU

Guest
Details From LDZA - Zagreb
To LDDU - DUBROVNIK
Flight Number -
Tags decoded
Created
Modified
Stats Distance 238 nm / 441 km
Max Altitude 0 ft / 0 m
Waypoints 3
Social Downloads 5
Likes 0
Share VATSIM

Download

Looking for another format? Having issues loading an existing format? Contact us
Advertisement - Login to hide

Notes

Requested: LDZA SPL LDDU

Route

LDZA SPL LDDU

ID Type Via Altitude Latitude Longitude Leg Dist Tot Dist Heading (true) Name
O LDZA APT - 0 ft / 0 m 45.74189˚ 16.06720˚ - 0 nm - Zagreb
SPL VOR - 0 ft / 0 m 43.49658˚ 16.30472˚ 135 nm 135 nm 176° / 176° SPLIT VOR-DME
O LDDU APT - 0 ft / 0 m 42.56284˚ 18.26450˚ 102 nm 237 nm 122° / 124° DUBROVNIK

Altitude Profile

Advertisement - Login to hide

Weather


0- 5 10 15 20 25 30 35+ Temperature / ° C

Clouds and Precipitation
Forecast for 2017-12-18 18:00 UTC. Updated 2 hours ago

Ground ~20,000 ft ~40,000 ft Winds

LDZA

Details ICAO LDZA (ZAG)
Name Zagreb
Region Croatia
Timezone Europe/Zagreb (UTC+1.0)
Stats Elevation 353 ft / 108 m (AMSL)
Location 45.741890° 16.067200°
Runways 1
Magnetic Variation 3.960° E

METAR

LDZA 181830Z 29002KT 8000 FEW035 M02/M03 Q1026 TEMPO 3000 BR

Decode

TAF

TAF AMD LDZA 181800Z 1818/1918 VRB02KT 6000 NSC TX01/1913Z TNM08/1906Z TEMPO 1818/1822 0800 BCFG SCT001 BECMG 1820/1822 0300 FZFG BECMG 1822/1900 0100 VV001 BECMG 1909/1911 1000 BR BKN002 BECMG 1911/1913 4000 SCT010 BECMG 1915/1917 0300 FZFG VV001

Decode

Departure Runways

ID Width Length Bearing (true) Bearing (mag) Surface Threshold Offset Overrun Length
05 148 ft / 45 m 10,659 ft / 3,249 m 46.69° 42.73° Asphalt 0 ft / 0 m 195 ft / 59 m
23 148 ft / 45 m 10,659 ft / 3,249 m 226.71° 222.75° Asphalt 0 ft / 0 m 195 ft / 59 m

LDDU

Details ICAO LDDU (DBV)
Name DUBROVNIK
Region Croatia
Timezone Europe/Zagreb (UTC+1.0)
Stats Elevation 527 ft / 161 m (AMSL)
Location 42.562840° 18.264499°
Runways 1
Magnetic Variation 4.101° E

METAR

LDDU 181830Z 03022KT 360V060 CAVOK 05/M08 Q1019 TEMPO 02022G32KT

Decode

TAF

TAF TAF LDDU 181725Z 1818/1918 02020KT 9999 FEW070 TX06/1913Z TN03/1906Z TEMPO 1818/1906 02022G34KT BECMG 1907/1909 02010KT TEMPO 1909/1914 VRB09KT

Decode

Destination Runways

ID Width Length Bearing (true) Bearing (mag) Surface Threshold Offset Overrun Length
12 148 ft / 45 m 10,803 ft / 3,293 m 118.30° 114.20° Asphalt 488 ft / 149 m 100 ft / 30 m
30 148 ft / 45 m 10,803 ft / 3,293 m 298.33° 294.23° Asphalt 0 ft / 0 m 100 ft / 30 m

Approach Navaids

Runway Type Ident Frequency Range Bearing (true) Bearing (mag) Slope Elevation
12 Localiser IDU 110.10 MHz 25 nm / 46 km 118.21° 114.11° - 469 ft / 143 m (AMSL)
12 Glidescope IDU 110.10 MHz 25 nm / 46 km 118.21° 114.11° 3.00° 502 ft / 153 m (AMSL)

Popular Alternatives